CSCL Genoa — V2OH2 — position and weather

sailwx.info

Track history (hours):
 
Tides and Currents Weather Stations Pressure Air Temp Water Temp Dewpoint Dewpoint Depression Visibility Wind Speed Wind Dir Waves Ship Positions

CSCL Genoa

Last reported at 2015-Jun-04 17:10 UTC. Time now 2015-Jul-01 12:47 UTC.
Position S 32°34' E 017°08'.
Warning: this ship's position is 26 days out of date.

Length 208 m; beam 32 m; draft 11.5 m.

Type: Ship. MMSI: 304528000.

Date/timePositionNaut miles runAvg speedWind from/ knotsBaromVisibWave heightAir tempDewpointWater temp
2015-Jun-04 17:10S 32°34' E 017°08'15914.6
2015-Jun-04 06:15S 34°43' E 019°00'30312.2
2015-Jun-03 05:23S 34°19' E 025°07'1515.2
2015-Jun-03 04:25S 34°15' E 025°24'2115.8
2015-Jun-03 03:05S 34°10' E 025°49'33614.8
2015-Jun-02 04:27S 30°29' E 030°48'1213.0
2015-Jun-02 03:32S 30°18' E 030°54'1212.2
2015-Jun-02 02:33S 30°07' E 030°60'1212.5
2015-Jun-02 01:34S 29°56' E 031°06'5 5.2
2015-Jun-02 00:33S 29°53' E 031°02'0 0.2
2015-Jun-01 23:26S 29°53' E 031°01'0 0.0
2015-Jun-01 22:32S 29°53' E 031°01'0 0.0
2015-Jun-01 21:32S 29°53' E 031°01'0 0.0
2015-Jun-01 20:32S 29°53' E 031°01'0 0.0
2015-Jun-01 19:32S 29°53' E 031°01'0 0.0
2015-Jun-01 18:32S 29°53' E 031°01'0 0.0
2015-Jun-01 17:32S 29°53' E 031°01'0 0.0
2015-Jun-01 16:32S 29°53' E 031°01'0 0.0
2015-Jun-01 15:32S 29°53' E 031°01'0 0.0
2015-Jun-01 14:32S 29°53' E 031°01'0 0.0
2015-Jun-01 13:32S 29°53' E 031°01'0 0.0
2015-Jun-01 12:32S 29°53' E 031°01'0 0.0
2015-Jun-01 11:32S 29°53' E 031°01'0 0.0
2015-Jun-01 10:32S 29°53' E 031°01'0 0.0
2015-Jun-01 09:32S 29°53' E 031°01'0 0.0
2015-Jun-01 08:32S 29°53' E 031°01'0 0.0
2015-Jun-01 07:15S 29°53' E 031°01'0 0.1
2015-Jun-01 06:33S 29°53' E 031°01'6 5.5
2015-Jun-01 05:33S 29°49' E 031°06'11 3.7
2015-Jun-01 02:33S 29°52' E 031°18'8 8.3
2015-Jun-01 01:33S 29°44' E 031°21'1313.2
2015-Jun-01 00:33S 29°35' E 031°31'1413.2
2015-May-31 23:30S 29°25' E 031°43'1413.3
2015-May-31 22:25S 29°15' E 031°54'1413.8
2015-May-31 21:24S 29°04' E 032°06'  
Track history (hours):
 
Tides and Currents Weather Stations Pressure Air Temp Water Temp Dewpoint Dewpoint Depression Visibility Wind Speed Wind Dir Waves Ship Positions

CSCL Genoa

Last reported at 2015-Jun-04 17:10 UTC. Time now 2015-Jul-01 12:47 UTC.
Position S 32°34' E 017°08'.
Warning: this ship's position is 26 days out of date.

Length 208 m; beam 32 m; draft 11.5 m.

Type: Ship. MMSI: 304528000.

Date/timePositionNaut miles runAvg speedWind from/ knotsBaromVisibWave heightAir tempDewpointWater temp
2015-Jun-04 17:10S 32°34' E 017°08'15914.6
2015-Jun-04 06:15S 34°43' E 019°00'30312.2
2015-Jun-03 05:23S 34°19' E 025°07'1515.2
2015-Jun-03 04:25S 34°15' E 025°24'2115.8
2015-Jun-03 03:05S 34°10' E 025°49'33614.8
2015-Jun-02 04:27S 30°29' E 030°48'1213.0
2015-Jun-02 03:32S 30°18' E 030°54'1212.2
2015-Jun-02 02:33S 30°07' E 030°60'1212.5
2015-Jun-02 01:34S 29°56' E 031°06'5 5.2
2015-Jun-02 00:33S 29°53' E 031°02'0 0.2
2015-Jun-01 23:26S 29°53' E 031°01'0 0.0
2015-Jun-01 22:32S 29°53' E 031°01'0 0.0
2015-Jun-01 21:32S 29°53' E 031°01'0 0.0
2015-Jun-01 20:32S 29°53' E 031°01'0 0.0
2015-Jun-01 19:32S 29°53' E 031°01'0 0.0
2015-Jun-01 18:32S 29°53' E 031°01'0 0.0
2015-Jun-01 17:32S 29°53' E 031°01'0 0.0
2015-Jun-01 16:32S 29°53' E 031°01'0 0.0
2015-Jun-01 15:32S 29°53' E 031°01'0 0.0
2015-Jun-01 14:32S 29°53' E 031°01'0 0.0
2015-Jun-01 13:32S 29°53' E 031°01'0 0.0
2015-Jun-01 12:32S 29°53' E 031°01'0 0.0
2015-Jun-01 11:32S 29°53' E 031°01'0 0.0
2015-Jun-01 10:32S 29°53' E 031°01'0 0.0
2015-Jun-01 09:32S 29°53' E 031°01'0 0.0
2015-Jun-01 08:32S 29°53' E 031°01'0 0.0
2015-Jun-01 07:15S 29°53' E 031°01'0 0.1
2015-Jun-01 06:33S 29°53' E 031°01'6 5.5
2015-Jun-01 05:33S 29°49' E 031°06'11 3.7
2015-Jun-01 02:33S 29°52' E 031°18'8 8.3
2015-Jun-01 01:33S 29°44' E 031°21'1313.2
2015-Jun-01 00:33S 29°35' E 031°31'1413.2
2015-May-31 23:30S 29°25' E 031°43'1413.3
2015-May-31 22:25S 29°15' E 031°54'1413.8
2015-May-31 21:24S 29°04' E 032°06'  

Dump ship's entire track history